Time;durP1;ratioP1;P1;durP2;ratioP2;P2;SDS_P1;SDS_P2;PMS_P1;PMS_P2;Temp;Humidity;BMP_temperature;BMP_pressure;BME280_temperature;BME280_humidity;BME280_pressure;Samples;Min_cycle;Max_cycle;Signal;HPM_P1;HPM_P2
2022/07/17 00:00:01;;;;;;;1.92;0.90;;;;;;;20.47;40.88;100377.47;4486683;31;34001;-77
2022/07/17 00:02:54;;;;;;;2.60;0.77;;;;;;;20.86;39.27;100384.81;4484642;31;35617;-77
2022/07/17 00:05:44;;;;;;;1.87;0.70;;;;;;;20.19;41.39;100373.59;4494525;31;35547;-77
2022/07/17 00:08:32;;;;;;;2.55;0.80;;;;;;;19.35;42.19;100383.94;4482480;31;35537;-77
2022/07/17 00:11:18;;;;;;;1.75;0.82;;;;;;;20.06;41.16;100385.94;4481803;31;34813;-77
2022/07/17 00:14:05;;;;;;;1.87;0.90;;;;;;;20.44;40.96;100387.34;4488181;31;34560;-77
2022/07/17 00:16:53;;;;;;;1.77;0.70;;;;;;;20.20;41.16;100383.53;4480253;31;35466;-76
2022/07/17 00:19:40;;;;;;;1.30;0.80;;;;;;;18.96;42.57;100387.16;4484828;31;34180;-76
2022/07/17 00:22:27;;;;;;;1.40;0.80;;;;;;;18.81;44.00;100394.25;4484386;31;34136;-77
2022/07/17 00:25:14;;;;;;;3.78;0.93;;;;;;;19.08;44.40;100392.69;4496766;31;34825;-77
2022/07/17 00:28:02;;;;;;;3.22;0.95;;;;;;;19.31;42.13;100395.75;4496666;31;35666;-77
2022/07/17 00:30:48;;;;;;;2.72;1.08;;;;;;;18.78;43.48;100392.13;4496793;31;34797;-76
2022/07/17 00:33:34;;;;;;;1.90;1.00;;;;;;;18.98;43.86;100393.19;4496709;31;35087;-76
2022/07/17 00:36:21;;;;;;;1.77;0.60;;;;;;;18.72;43.94;100401.81;4482532;31;35191;-75
2022/07/17 00:39:08;;;;;;;3.37;0.90;;;;;;;19.09;43.09;100399.84;4480982;31;34723;-77
2022/07/17 00:41:55;;;;;;;1.23;0.80;;;;;;;18.73;44.04;100409.00;4482046;31;35614;-76
2022/07/17 00:44:44;;;;;;;1.77;0.90;;;;;;;19.31;42.69;100409.66;4489169;31;34419;-77
2022/07/17 00:47:30;;;;;;;1.77;0.80;;;;;;;18.61;44.24;100411.75;4491879;31;35590;-76
2022/07/17 00:50:17;;;;;;;5.07;0.90;;;;;;;18.62;44.09;100408.66;4482518;31;35683;-76
2022/07/17 00:53:05;;;;;;;2.55;0.90;;;;;;;18.55;45.16;100411.19;4480809;31;34563;-77
2022/07/17 00:55:53;;;;;;;3.92;0.90;;;;;;;18.58;45.42;100418.81;4479851;31;34155;-77
2022/07/17 00:58:40;;;;;;;1.75;1.00;;;;;;;19.20;43.89;100411.28;4483007;31;35374;-77
2022/07/17 01:01:27;;;;;;;2.87;0.98;;;;;;;19.72;42.76;100416.03;4479830;31;35013;-77
2022/07/17 01:04:14;;;;;;;2.35;0.98;;;;;;;20.01;41.79;100419.63;4487571;31;34676;-77
2022/07/17 01:07:04;;;;;;;1.55;0.70;;;;;;;19.77;42.24;100424.09;4488032;31;35080;-76
2022/07/17 01:09:51;;;;;;;2.92;1.05;;;;;;;19.96;41.88;100426.22;4484618;31;34356;-77
2022/07/17 01:12:40;;;;;;;3.00;0.80;;;;;;;19.98;42.41;100429.47;4479510;31;35597;-77
2022/07/17 01:15:26;;;;;;;1.67;0.90;;;;;;;20.05;41.84;100423.28;4480819;31;34559;-76
2022/07/17 01:18:14;;;;;;;2.90;0.90;;;;;;;19.41;43.39;100426.97;4482755;31;35090;-76
2022/07/17 01:21:07;;;;;;;2.45;0.85;;;;;;;19.22;44.10;100433.97;4468361;31;35524;-76
2022/07/17 01:23:54;;;;;;;2.45;0.82;;;;;;;19.69;43.51;100427.84;4479382;31;34994;-77
2022/07/17 01:26:43;;;;;;;2.35;1.10;;;;;;;19.73;43.53;100426.00;4480628;31;34596;-77
2022/07/17 01:29:29;;;;;;;2.37;0.82;;;;;;;19.75;42.90;100425.62;4481441;31;33772;-76
2022/07/17 01:32:16;;;;;;;1.60;0.90;;;;;;;19.66;43.94;100431.34;4480811;31;35795;-76
2022/07/17 01:35:03;;;;;;;2.87;0.88;;;;;;;19.06;45.52;100433.06;4479398;31;36096;-77
2022/07/17 01:37:49;;;;;;;1.05;0.62;;;;;;;18.66;45.88;100434.56;4491789;31;34528;-76
2022/07/17 01:40:36;;;;;;;2.83;1.20;;;;;;;19.05;45.82;100434.25;4483587;31;35371;-77
2022/07/17 01:43:23;;;;;;;4.90;1.00;;;;;;;18.93;45.06;100440.63;4496042;31;34222;-76
2022/07/17 01:46:10;;;;;;;2.92;1.00;;;;;;;18.30;47.28;100446.44;4479088;31;35266;-77
2022/07/17 01:48:56;;;;;;;2.90;0.82;;;;;;;18.82;46.00;100445.81;4480227;31;34607;-77
2022/07/17 01:51:43;;;;;;;3.85;0.82;;;;;;;18.32;47.32;100440.53;4483934;31;33642;-76
2022/07/17 01:54:29;;;;;;;1.15;0.75;;;;;;;18.47;46.59;100447.37;4482742;31;34657;-77
2022/07/17 01:57:16;;;;;;;3.97;1.10;;;;;;;18.31;47.15;100442.50;4484929;31;35845;-77
2022/07/17 02:00:06;;;;;;;3.20;0.95;;;;;;;18.18;47.64;100452.72;4474554;31;34088;-76
2022/07/17 02:02:54;;;;;;;1.48;0.80;;;;;;;18.39;46.70;100455.47;4487465;31;34883;-77
2022/07/17 02:05:41;;;;;;;1.48;0.77;;;;;;;17.76;48.57;100466.66;4488473;31;34704;-76
2022/07/17 02:08:27;;;;;;;5.22;1.25;;;;;;;17.34;49.57;100459.50;4497938;31;34680;-77
2022/07/17 02:11:13;;;;;;;3.62;0.90;;;;;;;17.24;50.40;100469.00;4472583;31;35517;-77
2022/07/17 02:14:00;;;;;;;1.40;0.80;;;;;;;17.85;49.07;100466.63;4482543;31;34064;-77
2022/07/17 02:16:47;;;;;;;1.87;0.80;;;;;;;17.03;50.55;100469.78;4469876;31;34323;-77
2022/07/17 02:19:34;;;;;;;1.73;0.93;;;;;;;16.87;50.74;100474.25;4488083;31;35616;-77
2022/07/17 02:22:20;;;;;;;1.67;0.90;;;;;;;16.85;51.07;100477.34;4484242;31;34584;-77
2022/07/17 02:25:08;;;;;;;2.67;0.90;;;;;;;16.19;52.68;100482.41;4487776;31;34151;-77
2022/07/17 02:27:54;;;;;;;2.28;0.90;;;;;;;16.39;52.60;100487.25;4481941;31;34650;-77
2022/07/17 02:30:42;;;;;;;3.15;0.80;;;;;;;16.63;51.50;100492.22;4480686;31;35736;-76
2022/07/17 02:33:29;;;;;;;1.70;0.70;;;;;;;16.85;50.91;100498.69;4482024;31;34585;-79
2022/07/17 02:36:16;;;;;;;2.97;0.90;;;;;;;15.78;53.94;100485.72;4483604;31;34219;-79
2022/07/17 02:39:04;;;;;;;3.08;0.80;;;;;;;15.16;56.50;100492.25;4474675;31;35260;-80
2022/07/17 02:41:51;;;;;;;3.60;0.75;;;;;;;15.14;56.58;100498.13;4485472;31;35043;-80
2022/07/17 02:44:38;;;;;;;3.03;0.70;;;;;;;15.27;56.15;100497.16;4482019;31;34227;-79
2022/07/17 02:47:27;;;;;;;1.83;1.00;;;;;;;15.21;56.36;100498.44;4481668;31;34694;-80
2022/07/17 02:50:14;;;;;;;2.03;0.90;;;;;;;15.15;57.17;100496.16;4489970;31;35270;-79
2022/07/17 02:53:00;;;;;;;1.08;0.75;;;;;;;15.01;57.54;100499.03;4484453;31;35950;-79
2022/07/17 02:55:49;;;;;;;2.20;1.20;;;;;;;15.55;56.53;100505.16;4482375;31;34291;-77
2022/07/17 02:58:35;;;;;;;1.70;0.80;;;;;;;15.16;56.58;100506.06;4485374;31;35054;-77
2022/07/17 03:01:23;;;;;;;1.27;0.75;;;;;;;15.33;55.69;100506.09;4485407;31;35583;-77
2022/07/17 03:04:10;;;;;;;2.05;0.75;;;;;;;15.36;56.60;100510.16;4493625;31;34882;-77
2022/07/17 03:06:57;;;;;;;2.40;1.10;;;;;;;15.96;53.78;100514.97;4481496;31;34720;-76
2022/07/17 03:09:43;;;;;;;3.03;0.70;;;;;;;16.29;53.21;100509.72;4479936;31;33617;-77
2022/07/17 03:12:30;;;;;;;1.83;0.65;;;;;;;16.02;53.42;100510.88;4481494;31;34314;-77
2022/07/17 03:15:17;;;;;;;1.73;0.77;;;;;;;15.52;55.34;100517.66;4481540;31;35868;-76
2022/07/17 03:18:03;;;;;;;5.55;1.08;;;;;;;15.04;56.60;100520.47;4488008;31;35195;-77
2022/07/17 03:20:50;;;;;;;2.12;0.80;;;;;;;16.08;55.14;100520.66;4497386;31;34975;-77
2022/07/17 03:23:37;;;;;;;3.87;0.85;;;;;;;16.76;51.36;100518.09;4485255;31;36104;-77
2022/07/17 03:26:24;;;;;;;4.12;0.95;;;;;;;16.38;52.60;100529.06;4497321;31;34906;-77
2022/07/17 03:29:11;;;;;;;2.03;0.70;;;;;;;16.48;52.28;100537.03;4497298;31;34814;-77
2022/07/17 03:31:58;;;;;;;2.87;0.70;;;;;;;15.88;53.54;100547.00;4496754;31;35113;-76
2022/07/17 03:34:44;;;;;;;1.10;0.52;;;;;;;15.68;54.55;100548.44;4497375;31;35561;-77
2022/07/17 03:37:31;;;;;;;1.90;0.90;;;;;;;15.99;54.72;100547.47;4497099;31;35051;-76
2022/07/17 03:40:17;;;;;;;2.55;0.90;;;;;;;16.14;54.89;100546.19;4484629;31;34574;-77
2022/07/17 03:43:03;;;;;;;2.30;0.60;;;;;;;15.89;54.41;100553.34;4497309;31;34075;-76
2022/07/17 03:45:51;;;;;;;2.30;0.90;;;;;;;16.11;55.05;100553.19;4497084;31;34202;-76
2022/07/17 03:48:38;;;;;;;1.15;0.70;;;;;;;15.97;54.32;100552.53;4496942;31;34963;-77
2022/07/17 03:51:27;;;;;;;2.72;1.00;;;;;;;16.74;52.83;100559.09;4497305;31;34609;-76
2022/07/17 03:54:14;;;;;;;1.25;0.70;;;;;;;17.04;50.95;100550.88;4497121;31;34306;-77
2022/07/17 03:57:00;;;;;;;1.77;0.90;;;;;;;15.80;53.45;100558.84;4484790;31;35578;-77
2022/07/17 03:59:46;;;;;;;4.25;0.90;;;;;;;15.80;55.20;100564.38;4497119;31;36005;-76
2022/07/17 04:02:34;;;;;;;2.15;0.80;;;;;;;15.79;54.38;100567.47;4497250;31;33714;-77
2022/07/17 04:05:22;;;;;;;3.17;0.75;;;;;;;16.09;53.52;100571.22;4485028;31;34080;-77
2022/07/17 04:08:12;;;;;;;1.50;1.00;;;;;;;16.28;53.18;100587.47;4497280;31;34626;-76
2022/07/17 04:11:00;;;;;;;2.80;0.82;;;;;;;16.32;53.18;100589.25;4485277;31;34585;-76
2022/07/17 04:13:54;;;;;;;1.55;0.70;;;;;;;15.84;54.86;100579.16;4486229;31;34620;-76
2022/07/17 04:16:41;;;;;;;2.90;1.05;;;;;;;16.13;54.94;100581.28;4474040;31;34095;-76
2022/07/17 04:19:28;;;;;;;3.50;0.80;;;;;;;15.73;54.61;100581.41;4496615;31;33287;-76
2022/07/17 04:22:15;;;;;;;2.45;0.70;;;;;;;15.23;56.44;100581.75;4497143;31;35952;-76
2022/07/17 04:25:01;;;;;;;0.95;0.70;;;;;;;15.88;54.79;100587.62;4496579;31;34845;-77
2022/07/17 04:27:48;;;;;;;8.90;0.82;;;;;;;16.14;54.00;100588.47;4485183;31;33952;-76
2022/07/17 04:30:35;;;;;;;1.62;0.70;;;;;;;16.22;53.51;100584.06;4496752;31;34648;-77
2022/07/17 04:33:22;;;;;;;1.00;0.70;;;;;;;15.59;54.43;100591.75;4484889;31;34908;-77
2022/07/17 04:36:09;;;;;;;2.72;0.90;;;;;;;15.33;56.05;100599.16;4496949;31;35534;-77
2022/07/17 04:38:56;;;;;;;1.25;0.55;;;;;;;15.68;54.33;100595.41;4496832;31;35005;-77
2022/07/17 04:41:42;;;;;;;1.85;1.00;;;;;;;15.79;54.15;100603.37;4496718;31;35664;-77
2022/07/17 04:44:29;;;;;;;1.25;0.70;;;;;;;15.61;54.24;100600.56;4496363;31;35879;-77
2022/07/17 04:47:16;;;;;;;3.95;0.85;;;;;;;16.02;53.92;100613.16;4496740;31;34281;-78
2022/07/17 04:50:04;;;;;;;4.50;0.88;;;;;;;15.99;53.45;100621.28;4496447;31;34316;-77
2022/07/17 04:52:50;;;;;;;3.25;0.70;;;;;;;15.92;53.48;100616.25;4496519;31;34262;-78
2022/07/17 04:55:38;;;;;;;1.60;0.85;;;;;;;15.72;53.90;100618.50;4484872;31;35637;-76
2022/07/17 04:58:25;;;;;;;2.83;0.70;;;;;;;15.98;53.68;100614.94;4484315;31;34622;-77
2022/07/17 05:01:19;;;;;;;2.20;0.90;;;;;;;15.80;54.77;100618.84;4496722;31;33699;-76
2022/07/17 05:04:06;;;;;;;1.40;0.77;;;;;;;16.17;53.30;100615.47;4484685;31;35643;-76
2022/07/17 05:06:53;;;;;;;2.17;0.80;;;;;;;16.66;52.52;100629.09;4496400;31;34510;-77
2022/07/17 05:09:41;;;;;;;1.98;0.90;;;;;;;16.06;53.81;100616.91;4496700;31;35190;-77
2022/07/17 05:12:28;;;;;;;2.25;0.60;;;;;;;15.85;54.80;100613.97;4496680;31;33696;-77
2022/07/17 05:15:15;;;;;;;0.80;0.60;;;;;;;16.28;53.05;100626.19;4484406;31;35601;-78
2022/07/17 05:18:02;;;;;;;2.62;0.90;;;;;;;16.17;54.08;100628.47;4496518;31;34497;-78
2022/07/17 05:20:49;;;;;;;1.20;0.77;;;;;;;16.41;52.84;100627.97;4496110;31;35644;-77
2022/07/17 05:23:35;;;;;;;1.20;0.73;;;;;;;16.60;52.63;100631.22;4496261;31;35326;-78
2022/07/17 05:26:24;;;;;;;1.40;0.60;;;;;;;16.36;52.33;100637.28;4496591;31;34613;-78
2022/07/17 05:29:11;;;;;;;1.10;0.70;;;;;;;16.38;52.99;100634.97;4484660;31;35013;-77
2022/07/17 05:31:58;;;;;;;1.45;0.77;;;;;;;17.10;51.21;100632.59;4483184;31;33229;-77
2022/07/17 05:34:45;;;;;;;2.47;0.60;;;;;;;16.54;53.30;100629.78;4484380;31;34977;-77
2022/07/17 05:37:33;;;;;;;1.87;0.80;;;;;;;16.77;52.74;100640.69;4483748;31;34527;-79
2022/07/17 05:40:21;;;;;;;3.35;1.00;;;;;;;16.46;52.96;100635.31;4484626;31;35693;-79
2022/07/17 05:43:09;;;;;;;3.83;0.93;;;;;;;16.44;53.13;100641.16;4496422;31;34121;-78
2022/07/17 05:45:59;;;;;;;1.65;0.77;;;;;;;16.43;53.40;100636.78;4484774;31;33870;-78
2022/07/17 05:48:58;;;;;;;1.30;0.68;;;;;;;16.57;53.83;100636.59;4485741;31;35215;-77
2022/07/17 05:51:46;;;;;;;1.92;0.70;;;;;;;16.92;52.73;100637.37;4495307;31;34991;-78
2022/07/17 05:54:33;;;;;;;1.65;0.65;;;;;;;17.05;53.47;100641.91;4496696;31;34108;-78
2022/07/17 05:57:23;;;;;;;2.58;1.00;;;;;;;17.00;52.66;100644.84;4496678;31;33679;-78
2022/07/17 06:00:11;;;;;;;1.77;0.70;;;;;;;17.00;52.56;100639.31;4496104;31;34693;-81
2022/07/17 06:03:01;;;;;;;2.62;0.75;;;;;;;17.28;51.55;100645.25;4496298;31;34939;-78
2022/07/17 06:05:48;;;;;;;1.40;0.50;;;;;;;17.58;50.52;100636.97;4484103;31;34210;-79
2022/07/17 06:08:35;;;;;;;1.98;0.68;;;;;;;17.69;50.52;100640.19;4495808;31;34130;-79
2022/07/17 06:11:23;;;;;;;1.23;0.70;;;;;;;17.68;49.48;100647.69;4484027;31;34574;-78
2022/07/17 06:14:16;;;;;;;2.75;0.60;;;;;;;17.80;49.52;100648.97;4484328;31;34903;-80
2022/07/17 06:17:04;;;;;;;1.98;0.43;;;;;;;18.27;48.63;100646.84;4495413;31;34461;-79
2022/07/17 06:19:51;;;;;;;2.80;0.50;;;;;;;18.45;46.96;100646.69;4484167;31;34255;-81
2022/07/17 06:22:45;;;;;;;0.82;0.50;;;;;;;18.28;45.04;100648.47;4484617;31;36100;-79
2022/07/17 06:25:33;;;;;;;2.65;0.77;;;;;;;18.55;46.18;100649.03;4484543;31;36071;-80
2022/07/17 06:28:19;;;;;;;1.62;0.57;;;;;;;18.44;45.56;100645.88;4496007;31;35820;-79
2022/07/17 06:31:07;;;;;;;1.00;0.50;;;;;;;18.37;47.08;100646.44;4495807;31;34206;-79
2022/07/17 06:33:55;;;;;;;2.60;0.60;;;;;;;18.57;46.59;100646.75;4495652;31;34669;-79
2022/07/17 06:36:44;;;;;;;2.45;0.60;;;;;;;18.66;45.14;100655.81;4495792;31;35580;-80
2022/07/17 06:39:32;;;;;;;2.72;0.70;;;;;;;18.89;45.17;100647.94;4482810;31;35545;-80
2022/07/17 06:42:21;;;;;;;5.50;0.52;;;;;;;18.73;44.27;100660.81;4496881;31;34972;-80
2022/07/17 06:45:09;;;;;;;2.30;0.50;;;;;;;18.76;42.80;100657.41;4497997;31;35556;-80
2022/07/17 06:47:57;;;;;;;2.53;0.60;;;;;;;18.71;43.68;100655.59;4486527;31;34907;-80
2022/07/17 06:50:45;;;;;;;2.97;0.52;;;;;;;18.88;43.21;100666.56;4497760;31;34124;-80
2022/07/17 06:53:35;;;;;;;2.70;0.50;;;;;;;18.68;42.24;100656.28;4485713;31;34059;-80
2022/07/17 06:56:25;;;;;;;2.62;0.60;;;;;;;18.93;43.79;100657.22;4475111;31;35507;-79
2022/07/17 06:59:12;;;;;;;2.37;0.73;;;;;;;19.31;42.57;100662.50;4497912;31;36042;-80
2022/07/17 07:02:03;;;;;;;2.00;0.73;;;;;;;19.70;40.42;100657.47;4485472;31;34654;-79
2022/07/17 07:04:53;;;;;;;0.88;0.40;;;;;;;19.59;39.48;100659.06;4484596;31;33695;-80
2022/07/17 07:07:40;;;;;;;1.10;0.37;;;;;;;19.66;37.32;100655.72;4485244;31;34243;-80
2022/07/17 07:10:30;;;;;;;0.43;0.32;;;;;;;20.11;36.04;100660.31;4497746;31;36000;-80
2022/07/17 07:13:26;;;;;;;2.65;0.40;;;;;;;20.27;36.88;100652.06;4498070;31;35342;-79
2022/07/17 07:16:14;;;;;;;5.00;0.70;;;;;;;20.08;37.36;100650.69;4497801;31;33947;-79
2022/07/17 07:19:10;;;;;;;1.02;0.40;;;;;;;20.04;35.51;100651.75;4475818;31;34402;-79
2022/07/17 07:22:03;;;;;;;2.25;0.50;;;;;;;20.58;34.75;100654.19;4497641;31;34628;-78
2022/07/17 07:25:05;;;;;;;1.30;0.50;;;;;;;20.49;34.61;100657.09;4497422;31;35585;-79
2022/07/17 07:27:52;;;;;;;1.87;0.40;;;;;;;20.50;34.17;100660.69;4480834;31;35109;-78
2022/07/17 07:30:44;;;;;;;1.05;0.30;;;;;;;20.25;34.93;100654.37;4496168;31;34531;-79
2022/07/17 07:33:32;;;;;;;0.68;0.30;;;;;;;20.38;32.35;100669.88;4488412;31;35933;-78
2022/07/17 07:36:20;;;;;;;2.85;0.40;;;;;;;20.67;33.70;100660.41;4486288;31;34629;-79
2022/07/17 07:39:14;;;;;;;2.10;0.50;;;;;;;20.53;33.10;100649.69;4494555;31;34130;-79
2022/07/17 07:42:05;;;;;;;0.95;0.30;;;;;;;20.56;32.90;100659.31;4480567;31;35221;-80
2022/07/17 07:44:52;;;;;;;2.72;0.40;;;;;;;20.91;32.49;100658.66;4497492;31;34938;-80
2022/07/17 07:47:50;;;;;;;2.83;0.60;;;;;;;20.79;32.14;100651.19;4486493;31;34545;-79
2022/07/17 07:50:38;;;;;;;2.97;0.50;;;;;;;20.62;33.72;100652.31;4482540;31;33926;-80
2022/07/17 07:53:28;;;;;;;1.33;0.40;;;;;;;21.12;32.36;100667.63;4493579;31;35576;-79
2022/07/17 07:56:16;;;;;;;1.45;0.30;;;;;;;21.18;31.65;100660.63;4480028;31;35010;-79
2022/07/17 07:59:04;;;;;;;4.00;0.62;;;;;;;21.18;33.45;100651.44;4492459;31;35041;-80
2022/07/17 08:01:51;;;;;;;3.85;0.50;;;;;;;21.15;31.96;100660.53;4480082;31;34098;-79
2022/07/17 08:04:41;;;;;;;2.35;0.60;;;;;;;21.33;32.35;100661.78;4480646;31;35600;-79
2022/07/17 08:07:32;;;;;;;1.33;0.30;;;;;;;21.11;33.99;100665.97;4493212;31;34983;-80
2022/07/17 08:10:21;;;;;;;3.97;0.75;;;;;;;20.98;32.17;100668.03;4483156;31;34470;-79
2022/07/17 08:13:09;;;;;;;2.87;0.40;;;;;;;20.85;33.17;100660.91;4493478;31;34399;-79
2022/07/17 08:15:58;;;;;;;3.03;0.55;;;;;;;20.80;33.74;100663.94;4474919;31;33500;-79
2022/07/17 08:18:46;;;;;;;0.70;0.40;;;;;;;21.27;34.39;100664.03;4494182;31;34989;-80
2022/07/17 08:21:36;;;;;;;1.12;0.50;;;;;;;21.21;33.31;100667.44;4488081;31;34191;-79
2022/07/17 08:24:26;;;;;;;2.55;0.45;;;;;;;21.53;32.57;100662.72;4485635;31;33706;-79
2022/07/17 08:27:24;;;;;;;1.80;0.47;;;;;;;21.56;32.58;100673.16;4488537;31;34634;-79
2022/07/17 08:30:16;;;;;;;2.70;0.60;;;;;;;22.27;31.38;100676.03;4492530;31;35048;-80
2022/07/17 08:33:08;;;;;;;2.92;0.60;;;;;;;21.87;31.71;100677.87;4489622;31;35507;-80
2022/07/17 08:35:56;;;;;;;2.60;0.62;;;;;;;21.76;30.79;100671.25;4492422;31;34225;-80
2022/07/17 08:38:44;;;;;;;2.35;0.55;;;;;;;21.66;31.13;100667.03;4493607;31;35377;-79
2022/07/17 08:41:38;;;;;;;1.98;0.40;;;;;;;21.32;31.32;100668.53;4491010;31;34984;-80
2022/07/17 08:44:27;;;;;;;1.42;0.40;;;;;;;21.86;31.10;100675.44;4485814;31;34337;-78
2022/07/17 08:47:17;;;;;;;1.62;0.50;;;;;;;21.31;31.73;100667.72;4483382;31;34179;-79
2022/07/17 08:50:09;;;;;;;1.02;0.40;;;;;;;22.00;30.65;100668.25;4480532;31;35488;-79
2022/07/17 08:52:59;;;;;;;1.33;0.50;;;;;;;22.26;29.83;100668.84;4486587;31;36588;-78
2022/07/17 08:55:48;;;;;;;2.25;0.40;;;;;;;22.34;29.97;100668.63;4491603;31;35591;-80
2022/07/17 08:58:36;;;;;;;2.12;0.50;;;;;;;22.34;29.90;100674.22;4489425;31;35633;-79
2022/07/17 09:01:34;;;;;;;1.33;0.35;;;;;;;22.79;29.85;100667.13;4493853;31;34391;-79
2022/07/17 09:04:27;;;;;;;1.17;0.47;;;;;;;22.44;32.05;100670.03;4497391;31;36271;-79
2022/07/17 09:10:43;;;;;;;4.50;0.70;;;;;;;22.54;30.91;100665.81;4492184;31;35229;-80
2022/07/17 09:13:37;;;;;;;3.33;0.50;;;;;;;22.86;31.20;100661.72;4485833;31;34840;-80
2022/07/17 09:16:28;;;;;;;1.52;0.37;;;;;;;22.25;31.62;100662.44;4484523;31;34548;-79
2022/07/17 09:19:31;;;;;;;1.60;0.40;;;;;;;22.90;29.93;100662.56;4496344;31;34825;-80
2022/07/17 09:22:23;;;;;;;1.45;0.37;;;;;;;23.65;28.11;100660.34;4483738;31;34601;-79
2022/07/17 09:25:31;;;;;;;1.30;0.40;;;;;;;23.16;28.70;100646.31;4487818;31;35507;-81
2022/07/17 09:28:20;;;;;;;1.58;0.43;;;;;;;22.98;29.90;100652.38;4491813;31;35022;-79
2022/07/17 09:31:09;;;;;;;2.72;0.60;;;;;;;22.74;28.93;100655.47;4493865;31;35526;-82
2022/07/17 09:34:05;;;;;;;1.45;0.40;;;;;;;23.31;27.44;100651.78;4485350;31;34769;-79
2022/07/17 09:37:02;;;;;;;3.12;0.60;;;;;;;23.60;27.75;100660.66;4493111;31;34760;-80
2022/07/17 09:39:57;;;;;;;1.60;0.47;;;;;;;23.55;28.18;100649.78;4479134;31;35895;-80
2022/07/17 09:42:45;;;;;;;2.37;0.45;;;;;;;24.00;27.13;100645.31;4483748;31;35540;-79
2022/07/17 09:45:34;;;;;;;2.97;0.70;;;;;;;23.63;28.60;100637.53;4483471;31;35159;-80
2022/07/17 09:48:21;;;;;;;0.85;0.40;;;;;;;23.35;28.34;100637.84;4484819;31;35544;-80
2022/07/17 09:51:12;;;;;;;0.82;0.35;;;;;;;24.14;29.08;100630.69;4484821;31;35870;-82
2022/07/17 09:54:01;;;;;;;3.47;0.60;;;;;;;23.49;27.46;100628.91;4479597;31;34541;-80
2022/07/17 09:56:51;;;;;;;1.40;0.43;;;;;;;23.27;28.51;100639.72;4470819;31;34206;-79
2022/07/17 09:59:40;;;;;;;1.48;0.45;;;;;;;23.70;27.97;100634.00;4489623;31;34361;-80
2022/07/17 10:02:43;;;;;;;1.15;0.40;;;;;;;23.90;27.68;100637.53;4485254;31;35933;-80
2022/07/17 10:05:42;;;;;;;3.15;0.62;;;;;;;24.14;26.95;100639.91;4479300;31;34693;-80
2022/07/17 10:08:33;;;;;;;2.97;0.85;;;;;;;23.67;26.79;100632.78;4479318;31;34343;-80
2022/07/17 10:11:28;;;;;;;2.47;0.57;;;;;;;23.92;27.88;100629.59;4483954;31;34698;-80
2022/07/17 10:14:20;;;;;;;2.50;0.50;;;;;;;24.15;27.13;100635.91;4479876;31;35870;-80
2022/07/17 10:17:09;;;;;;;3.70;0.50;;;;;;;24.32;26.77;100634.53;4479391;31;34123;-80
2022/07/17 10:19:57;;;;;;;2.35;0.50;;;;;;;24.41;25.17;100637.84;4480889;31;34169;-82
2022/07/17 10:22:48;;;;;;;1.95;0.50;;;;;;;24.98;26.55;100632.09;4486241;31;34323;-80
2022/07/17 10:25:36;;;;;;;1.98;0.60;;;;;;;24.77;25.08;100646.72;4483324;31;34193;-81
2022/07/17 10:28:43;;;;;;;2.25;0.70;;;;;;;25.11;26.88;100622.22;4495587;31;34244;-80
2022/07/17 10:31:34;;;;;;;1.85;0.80;;;;;;;24.75;26.46;100623.06;4497088;31;34085;-79
2022/07/17 10:34:48;;;;;;;2.08;0.60;;;;;;;23.50;27.29;100616.53;4486249;31;34726;-80
2022/07/17 10:37:41;;;;;;;1.85;0.50;;;;;;;24.35;26.21;100619.75;4481041;31;35713;-80
2022/07/17 10:40:32;;;;;;;1.83;0.50;;;;;;;24.32;25.71;100623.31;4469354;31;34870;-80
2022/07/17 10:43:19;;;;;;;4.72;0.82;;;;;;;24.75;26.55;100623.87;4485695;31;33685;-80
2022/07/17 10:46:13;;;;;;;3.03;0.70;;;;;;;24.95;26.66;100618.88;4486178;31;33552;-81
2022/07/17 10:49:03;;;;;;;2.65;0.70;;;;;;;25.32;24.92;100623.66;4477799;31;34535;-81
2022/07/17 10:54:50;;;;;;;2.22;0.70;;;;;;;25.34;25.16;100624.06;4486461;31;34172;-81
2022/07/17 10:57:39;;;;;;;3.15;0.60;;;;;;;25.70;24.24;100615.91;4479733;31;34500;-80
2022/07/17 11:00:32;;;;;;;1.87;0.50;;;;;;;24.63;23.78;100615.72;4478123;31;35438;-83
2022/07/17 11:03:22;;;;;;;2.25;0.60;;;;;;;25.51;23.83;100609.38;4482789;31;34375;-80
2022/07/17 11:06:15;;;;;;;2.53;0.70;;;;;;;24.81;23.69;100615.91;4487105;31;35185;-82
2022/07/17 11:28:52;;;;;;;3.85;0.60;;;;;;;25.81;22.31;100594.34;4498852;31;372401;-78
2022/07/17 11:31:58;;;;;;;6.07;0.85;;;;;;;25.81;22.31;100594.34;4482774;31;33754;-81
2022/07/17 11:34:50;;;;;;;1.60;0.50;;;;;;;25.56;22.53;100589.37;4492547;31;34591;-81
2022/07/17 11:37:57;;;;;;;2.58;0.73;;;;;;;25.75;21.86;100587.47;4504297;31;35814;-81
2022/07/17 11:43:52;;;;;;;2.55;0.90;;;;;;;25.24;23.67;100582.72;4493728;31;34769;-83
2022/07/17 11:49:46;;;;;;;1.35;0.98;;;;;;;26.06;22.08;100574.06;4505890;31;34103;-83
2022/07/17 11:52:44;;;;;;;1.33;0.40;;;;;;;26.36;21.89;100563.34;4467031;31;33058;-82
2022/07/17 11:58:47;;;;;;;3.17;0.52;;;;;;;25.30;22.94;100576.37;4501829;31;35724;-79
2022/07/17 12:01:43;;;;;;;0.77;0.52;;;;;;;25.21;23.17;100564.66;4490854;31;36622;-78
2022/07/17 12:04:36;;;;;;;3.58;0.40;;;;;;;25.30;22.56;100558.72;4489660;31;34402;-79
2022/07/17 12:07:41;;;;;;;2.10;0.73;;;;;;;26.10;22.41;100567.25;4490119;31;34613;-77
2022/07/17 12:10:32;;;;;;;2.75;0.57;;;;;;;26.61;19.39;100557.00;4489895;31;34547;-80
2022/07/17 12:13:21;;;;;;;1.83;0.62;;;;;;;26.62;18.77;100551.00;4498395;31;36399;-80
2022/07/17 12:16:28;;;;;;;1.35;0.62;;;;;;;27.11;18.96;100557.06;4501521;31;34496;-80
2022/07/17 12:19:27;;;;;;;3.80;0.80;;;;;;;26.40;19.63;100550.09;4501420;31;34967;-81
2022/07/17 12:22:19;;;;;;;1.77;0.60;;;;;;;26.64;20.44;100553.41;4494617;31;34652;-80
2022/07/17 12:25:12;;;;;;;2.80;0.80;;;;;;;26.44;22.50;100552.91;4505790;31;33800;-81
2022/07/17 12:28:04;;;;;;;2.25;0.55;;;;;;;26.21;22.24;100556.06;4503710;31;34230;-80
2022/07/17 12:30:52;;;;;;;1.55;0.60;;;;;;;26.80;21.63;100542.59;4500837;31;34283;-80
2022/07/17 12:33:42;;;;;;;2.65;0.90;;;;;;;27.40;21.66;100554.28;4504715;31;34646;-79
2022/07/17 12:36:29;;;;;;;3.20;0.82;;;;;;;26.92;21.98;100547.84;4493000;31;36017;-80
2022/07/17 12:39:17;;;;;;;1.92;0.85;;;;;;;26.32;21.84;100564.53;4488438;31;34725;-80
2022/07/17 12:42:10;;;;;;;1.20;0.60;;;;;;;26.70;22.11;100543.38;4496275;31;34041;-79
2022/07/17 12:45:12;;;;;;;1.52;0.55;;;;;;;26.30;22.28;100527.59;4475554;31;34639;-79
2022/07/17 12:48:06;;;;;;;2.35;0.85;;;;;;;26.12;22.07;100524.72;4480569;31;34222;-80
2022/07/17 12:51:12;;;;;;;1.70;0.50;;;;;;;25.99;21.88;100539.13;4493693;31;33245;-79
2022/07/17 12:54:03;;;;;;;2.50;0.68;;;;;;;25.96;21.43;100534.31;4481894;31;34188;-79
2022/07/17 12:56:55;;;;;;;3.58;0.80;;;;;;;27.05;21.33;100522.13;4493578;31;34427;-81
2022/07/17 12:59:43;;;;;;;1.20;0.60;;;;;;;26.18;21.09;100535.19;4482782;31;35691;-80
2022/07/17 13:02:30;;;;;;;1.58;0.70;;;;;;;26.62;22.17;100519.28;4495685;31;34425;-79
2022/07/17 13:05:37;;;;;;;0.98;0.50;;;;;;;27.25;20.96;100522.53;4481372;31;33530;-79
2022/07/17 13:08:29;;;;;;;2.95;0.80;;;;;;;27.73;19.71;100516.41;4481719;31;33698;-80
2022/07/17 13:14:20;;;;;;;1.50;0.60;;;;;;;27.73;19.36;100520.03;4483955;31;34403;-80
2022/07/17 13:17:06;;;;;;;1.85;0.43;;;;;;;27.51;20.34;100518.47;4492478;31;32883;-78
2022/07/17 13:19:54;;;;;;;2.00;0.70;;;;;;;27.17;19.12;100513.28;4471689;31;34249;-79
2022/07/17 13:22:41;;;;;;;1.17;0.80;;;;;;;27.25;18.98;100528.16;4494140;31;35669;-80
2022/07/17 13:25:37;;;;;;;1.70;0.68;;;;;;;27.18;18.82;100514.09;4484123;31;34481;-79
2022/07/17 13:28:30;;;;;;;1.35;0.70;;;;;;;27.79;18.61;100507.16;4492659;31;34176;-79
2022/07/17 13:31:23;;;;;;;1.62;0.70;;;;;;;27.29;19.39;100501.63;4493713;31;34052;-79
2022/07/17 13:34:25;;;;;;;1.35;0.55;;;;;;;26.74;21.16;100504.03;4495874;31;35629;-81
2022/07/17 13:37:17;;;;;;;2.45;0.70;;;;;;;27.21;20.40;100505.66;4484743;31;35298;-80
2022/07/17 13:40:06;;;;;;;1.85;0.50;;;;;;;26.84;20.87;100500.44;4493580;31;34996;-81
2022/07/17 13:42:56;;;;;;;3.40;0.75;;;;;;;27.53;20.18;100499.19;4495509;31;34668;-81
2022/07/17 13:45:47;;;;;;;;;;;;;;;26.44;19.28;100502.34;4493917;31;35018;-81